Terminal Aerodrome Forecast
Issued by NWS

Home | Current Version | Previous Version | Text Only | Print | Product List | Glossary On
Versions: 1 2 3 4 5 6 7 8 9 10 11 12
000
FTUS45 KVEF 310500
TAFDAG
TAF
KDAG 310529Z 3106/0106 26006KT P6SM FEW150 SCT250
     FM311500 29006KT P6SM FEW150 FEW250
     FM312300 24012G20KT P6SM BKN250
     FM010200 25017G25KT P6SM BKN250=

USA.gov is the U.S. government's official web portal to all federal, state and local government web resources and services.